createdAt,value
2022-11-21T00:01:24.393Z,5.53
2022-11-21T00:03:52.588Z,6.55
2022-11-21T00:06:20.945Z,6.80
2022-11-21T00:08:48.538Z,6.45
2022-11-21T00:11:16.488Z,7.20
2022-11-21T00:13:44.619Z,6.93
2022-11-21T00:16:14.897Z,6.43
2022-11-21T00:18:44.027Z,6.45
2022-11-21T00:21:14.809Z,6.85
2022-11-21T00:23:43.384Z,6.38
2022-11-21T00:26:12.411Z,7.35
2022-11-21T00:28:40.031Z,5.88
2022-11-21T00:31:08.293Z,6.80
2022-11-21T00:33:36.914Z,6.38
2022-11-21T00:36:09.269Z,5.95
2022-11-21T00:38:37.218Z,6.38
2022-11-21T00:41:05.575Z,6.10
2022-11-21T00:43:33.650Z,6.57
2022-11-21T00:46:02.828Z,6.53
2022-11-21T00:48:31.876Z,5.70
2022-11-21T00:51:00.769Z,5.88
2022-11-21T00:53:29.529Z,6.57
2022-11-21T00:55:57.870Z,6.32
2022-11-21T00:58:25.773Z,7.78
2022-11-21T01:00:53.510Z,7.43
2022-11-21T01:03:21.105Z,7.00
2022-11-21T01:05:48.701Z,7.82
2022-11-21T01:08:16.211Z,6.32
2022-11-21T01:10:43.724Z,6.63
2022-11-21T01:13:11.256Z,6.03
2022-11-21T01:15:38.738Z,6.90
2022-11-21T01:18:06.291Z,5.78
2022-11-21T01:20:33.826Z,5.97
2022-11-21T01:23:01.379Z,7.05
2022-11-21T01:25:28.900Z,7.43
2022-11-21T01:27:56.502Z,6.32
2022-11-21T01:30:24.122Z,6.90
2022-11-21T01:32:52.394Z,6.97
2022-11-21T01:35:20.065Z,7.30
2022-11-21T01:37:48.753Z,6.38
2022-11-21T01:40:16.776Z,6.60
2022-11-21T01:42:57.047Z,7.18
2022-11-21T01:46:01.715Z,7.65
2022-11-21T01:48:34.890Z,6.80
2022-11-21T01:51:12.603Z,7.53
2022-11-21T01:53:41.942Z,7.65
2022-11-21T01:56:10.521Z,7.20
2022-11-21T01:58:40.102Z,6.80
2022-11-21T02:01:08.382Z,7.35
2022-11-21T02:03:41.486Z,6.53
2022-11-21T02:06:11.628Z,6.63
2022-11-21T02:08:40.802Z,6.97
2022-11-21T02:11:23.092Z,6.90
2022-11-21T02:13:50.732Z,6.75
2022-11-21T02:16:18.217Z,7.47
2022-11-21T02:18:45.785Z,7.05
2022-11-21T02:21:30.918Z,7.28
2022-11-21T02:24:12.102Z,8.48
2022-11-21T02:26:40.509Z,6.55
2022-11-21T02:29:08.024Z,6.53
2022-11-21T02:31:35.516Z,7.22
2022-11-21T02:34:03.092Z,6.32
2022-11-21T02:36:43.093Z,6.45
2022-11-21T02:39:25.457Z,6.03
2022-11-21T02:42:11.562Z,6.40
2022-11-21T02:44:49.225Z,6.25
2022-11-21T02:47:16.719Z,6.20
2022-11-21T02:50:10.341Z,5.65
2022-11-21T02:52:37.868Z,5.63
2022-11-21T02:55:05.977Z,6.40
2022-11-21T02:57:33.558Z,6.05
2022-11-21T03:00:01.086Z,5.38
2022-11-21T03:02:28.762Z,5.75
2022-11-21T03:04:56.329Z,6.43
2022-11-21T03:07:23.975Z,6.00
2022-11-21T03:09:51.530Z,5.80
2022-11-21T03:12:19.213Z,6.13
2022-11-21T03:14:46.817Z,5.55
2022-11-21T03:17:14.440Z,5.95
2022-11-21T03:19:41.978Z,5.65
2022-11-21T03:22:09.969Z,5.97
2022-11-21T03:24:37.482Z,5.18
2022-11-21T03:27:05.314Z,5.50
2022-11-21T03:29:32.989Z,5.75
2022-11-21T03:32:00.588Z,5.90
2022-11-21T03:34:28.290Z,6.03
2022-11-21T03:36:55.970Z,5.80
2022-11-21T03:39:23.621Z,6.40
2022-11-21T03:41:51.218Z,5.25
2022-11-21T03:44:18.775Z,5.50
2022-11-21T03:46:47.207Z,5.07
2022-11-21T03:49:16.724Z,5.40
2022-11-21T03:51:45.201Z,6.25
2022-11-21T03:54:12.737Z,5.05
2022-11-21T03:56:40.350Z,5.45
2022-11-21T03:59:08.048Z,5.32
2022-11-21T04:01:37.032Z,4.72
2022-11-21T04:04:05.630Z,4.72
2022-11-21T04:06:33.165Z,4.85
2022-11-21T04:09:00.666Z,5.30
2022-11-21T04:11:28.559Z,4.38
2022-11-21T04:13:56.120Z,4.10
2022-11-21T04:16:23.690Z,5.75
2022-11-21T04:18:51.282Z,5.90
2022-11-21T04:21:18.785Z,5.00
2022-11-21T04:23:46.443Z,4.80
2022-11-21T04:26:13.933Z,4.90
2022-11-21T04:28:41.565Z,5.00
2022-11-21T04:31:11.076Z,4.40
2022-11-21T04:33:39.824Z,5.03
2022-11-21T04:36:08.657Z,4.00
2022-11-21T04:38:36.931Z,4.00
2022-11-21T04:41:05.057Z,4.10
2022-11-21T04:43:32.705Z,3.90
2022-11-21T04:46:00.220Z,3.88
2022-11-21T04:48:27.976Z,5.03
2022-11-21T04:50:55.582Z,3.92
2022-11-21T04:53:23.177Z,4.38
2022-11-21T04:55:50.670Z,4.18
2022-11-21T04:58:18.197Z,4.53
2022-11-21T05:00:45.728Z,4.65
2022-11-21T05:03:13.314Z,6.82
2022-11-21T05:05:41.326Z,4.18
2022-11-21T05:08:08.872Z,4.97
2022-11-21T05:10:56.353Z,5.70
2022-11-21T05:13:24.013Z,5.13
2022-11-21T05:15:57.446Z,6.30
2022-11-21T05:18:25.012Z,5.70
2022-11-21T05:20:52.657Z,7.68
2022-11-21T05:23:20.285Z,6.57
2022-11-21T05:25:47.846Z,6.70
2022-11-21T05:28:15.434Z,6.55
2022-11-21T05:30:42.979Z,6.72
2022-11-21T05:33:10.570Z,6.00
2022-11-21T05:35:42.942Z,6.53
2022-11-21T05:38:11.255Z,5.50
2022-11-21T05:40:39.799Z,6.43
2022-11-21T05:43:26.074Z,6.07
2022-11-21T05:45:53.733Z,5.40
2022-11-21T05:48:21.354Z,8.93
2022-11-21T05:50:49.811Z,7.78
2022-11-21T05:53:18.969Z,7.07
2022-11-21T05:55:46.882Z,7.68
2022-11-21T05:58:14.896Z,7.63
2022-11-21T06:00:42.601Z,8.27
2022-11-21T06:03:31.170Z,7.57
2022-11-21T06:06:03.314Z,7.65
2022-11-21T06:08:34.016Z,8.95
2022-11-21T06:11:02.619Z,9.60
2022-11-21T06:13:30.747Z,9.13
2022-11-21T06:16:13.490Z,11.05
2022-11-21T06:18:43.896Z,10.13
2022-11-21T06:21:17.103Z,11.10
2022-11-21T06:23:46.134Z,13.25
2022-11-21T06:26:16.217Z,10.85
2022-11-21T06:28:44.693Z,10.70
2022-11-21T06:31:17.538Z,9.70
2022-11-21T06:33:46.188Z,9.48
2022-11-21T06:36:16.617Z,8.52
2022-11-21T06:38:45.210Z,9.18
2022-11-21T06:41:17.956Z,7.93
2022-11-21T06:43:46.507Z,7.45
2022-11-21T06:46:15.266Z,6.15
2022-11-21T06:48:43.850Z,6.78
2022-11-21T06:51:13.575Z,5.80
2022-11-21T06:53:41.077Z,6.10
2022-11-21T06:56:08.630Z,6.20
2022-11-21T06:58:36.907Z,5.82
2022-11-21T07:01:06.099Z,5.47
2022-11-21T07:03:34.630Z,5.32
2022-11-21T07:06:02.789Z,5.95
2022-11-21T07:08:31.479Z,5.35
2022-11-21T07:11:25.294Z,5.53
2022-11-21T07:13:53.406Z,5.60
2022-11-21T07:16:21.076Z,6.80
2022-11-21T07:18:48.612Z,6.32
2022-11-21T07:21:16.191Z,6.00
2022-11-21T07:23:43.759Z,5.95
2022-11-21T07:26:11.488Z,5.03
2022-11-21T07:28:39.302Z,5.57
2022-11-21T07:31:12.932Z,5.32
2022-11-21T07:33:43.507Z,6.50
2022-11-21T07:36:12.770Z,5.63
2022-11-21T07:38:41.466Z,5.43
2022-11-21T07:41:10.201Z,5.43
2022-11-21T07:43:37.847Z,6.55
2022-11-21T07:46:05.372Z,6.25
2022-11-21T07:48:33.028Z,5.35
2022-11-21T07:51:03.986Z,6.57
2022-11-21T07:53:31.619Z,5.90
2022-11-21T07:56:00.118Z,6.05
2022-11-21T07:58:27.854Z,7.15
2022-11-21T08:00:55.426Z,6.97
2022-11-21T08:03:25.253Z,7.13
2022-11-21T08:05:52.866Z,7.90
2022-11-21T08:08:20.584Z,6.70
2022-11-21T08:10:48.277Z,8.05
2022-11-21T08:13:15.866Z,6.57
2022-11-21T08:15:43.513Z,8.48
2022-11-21T08:18:19.194Z,6.57
2022-11-21T08:20:47.466Z,6.85
2022-11-21T08:23:15.733Z,7.20
2022-11-21T08:25:43.402Z,8.32
2022-11-21T08:28:12.417Z,9.10
2022-11-21T08:30:40.778Z,9.00
2022-11-21T08:33:08.650Z,8.68
2022-11-21T08:35:38.240Z,11.73
2022-11-21T08:38:06.242Z,8.73
2022-11-21T08:40:34.764Z,8.90
2022-11-21T08:43:07.440Z,7.63
2022-11-21T08:45:36.319Z,8.10
2022-11-21T08:48:03.999Z,8.95
2022-11-21T08:50:32.197Z,8.88
2022-11-21T08:53:01.804Z,10.02
2022-11-21T08:55:30.432Z,8.43
2022-11-21T08:57:58.499Z,8.00
2022-11-21T09:00:26.887Z,8.82
2022-11-21T09:02:54.475Z,8.02
2022-11-21T09:05:21.990Z,7.60
2022-11-21T09:07:56.437Z,6.90
2022-11-21T09:10:25.298Z,6.78
2022-11-21T09:12:53.094Z,7.57
2022-11-21T09:15:39.358Z,6.93
2022-11-21T09:18:08.134Z,7.90
2022-11-21T09:20:41.207Z,6.53
2022-11-21T09:23:13.694Z,7.93
2022-11-21T09:25:42.138Z,5.75
2022-11-21T09:28:11.817Z,5.55
2022-11-21T09:30:40.358Z,6.15
2022-11-21T09:33:14.065Z,6.30
2022-11-21T09:35:41.675Z,5.53
2022-11-21T09:38:09.902Z,6.45
2022-11-21T09:40:41.339Z,6.20
2022-11-21T09:43:30.682Z,6.13
2022-11-21T09:46:16.437Z,7.63
2022-11-21T09:49:00.509Z,6.88
2022-11-21T09:51:31.379Z,5.63
2022-11-21T09:54:10.236Z,6.50
2022-11-21T09:56:41.523Z,6.78
2022-11-21T09:59:34.077Z,6.32
2022-11-21T10:02:02.897Z,6.20
2022-11-21T10:04:31.801Z,3.85
2022-11-21T10:07:14.985Z,5.32
2022-11-21T10:10:11.104Z,5.18
2022-11-21T10:12:59.838Z,5.07
2022-11-21T10:16:05.764Z,4.57
2022-11-21T10:18:49.770Z,5.05
2022-11-21T10:21:32.903Z,5.10
2022-11-21T10:24:12.132Z,5.30
2022-11-21T10:27:00.339Z,4.20
2022-11-21T10:29:56.055Z,5.00
2022-11-21T10:32:40.551Z,4.90
2022-11-21T10:35:21.911Z,4.75
2022-11-21T10:38:01.722Z,4.93
2022-11-21T10:40:37.957Z,5.30
2022-11-21T10:43:47.908Z,4.95
2022-11-21T10:46:15.599Z,4.57
2022-11-21T10:48:46.865Z,5.85
2022-11-21T10:51:14.385Z,6.07
2022-11-21T10:54:20.462Z,4.53
2022-11-21T10:56:48.180Z,4.50
2022-11-21T10:59:31.165Z,4.38
2022-11-21T11:02:20.389Z,5.85
2022-11-21T11:04:52.247Z,4.20
2022-11-21T11:07:28.740Z,4.53
2022-11-21T11:10:27.718Z,4.78
2022-11-21T11:13:44.699Z,6.60
2022-11-21T11:16:15.554Z,5.68
2022-11-21T11:19:33.966Z,4.75
2022-11-21T11:22:03.242Z,4.60
2022-11-21T11:24:31.313Z,5.47
2022-11-21T11:27:01.257Z,5.43
2022-11-21T11:29:31.077Z,5.50
2022-11-21T11:32:17.872Z,5.30
2022-11-21T11:34:57.358Z,4.63
2022-11-21T11:37:27.959Z,5.68
2022-11-21T11:40:39.730Z,5.40
2022-11-21T11:43:47.399Z,5.55
2022-11-21T11:46:58.373Z,5.50
2022-11-21T11:50:13.344Z,6.00
2022-11-21T11:53:07.368Z,5.10
2022-11-21T11:55:46.947Z,5.72
2022-11-21T11:58:29.529Z,5.63
2022-11-21T12:01:21.897Z,5.70
2022-11-21T12:04:00.005Z,6.20
2022-11-21T12:07:31.448Z,5.40
2022-11-21T12:09:35.547Z,6.00
2022-11-21T12:12:06.682Z,4.43
2022-11-21T12:15:14.858Z,5.13
2022-11-21T12:18:01.209Z,5.45
2022-11-21T12:20:54.708Z,5.10
2022-11-21T12:23:25.139Z,5.47
2022-11-21T12:25:58.422Z,5.07
2022-11-21T12:29:07.459Z,4.65
2022-11-21T12:31:43.981Z,5.22
2022-11-21T12:34:24.313Z,6.15
2022-11-21T12:37:13.580Z,4.82
2022-11-21T12:39:59.012Z,6.15
2022-11-21T12:42:56.961Z,5.05
2022-11-21T12:45:34.533Z,5.05
2022-11-21T12:48:42.109Z,5.28
2022-11-21T12:51:43.593Z,5.28
2022-11-21T12:54:32.145Z,4.53
2022-11-21T12:57:14.019Z,6.30
2022-11-21T13:02:42.222Z,4.63
2022-11-21T13:05:16.522Z,4.55
2022-11-21T13:07:45.615Z,4.57
2022-11-21T13:10:16.121Z,6.00
2022-11-21T13:12:51.672Z,5.53
2022-11-21T13:15:31.795Z,4.82
2022-11-21T13:18:45.114Z,3.92
2022-11-21T13:21:50.191Z,4.45
2022-11-21T13:24:50.348Z,3.88
2022-11-21T13:27:26.711Z,4.45
2022-11-21T13:30:10.680Z,5.00
2022-11-21T13:32:52.146Z,3.92
2022-11-21T13:35:19.625Z,4.03
2022-11-21T13:37:49.857Z,4.38
2022-11-21T13:40:26.638Z,4.47
2022-11-21T13:46:00.201Z,3.33
2022-11-21T13:48:51.684Z,5.18
2022-11-21T13:51:52.457Z,3.65
2022-11-21T13:54:41.276Z,4.75
2022-11-21T13:57:15.105Z,4.15
2022-11-21T13:59:47.108Z,4.07
2022-11-21T14:02:44.853Z,3.90
2022-11-21T14:05:33.881Z,3.53
2022-11-21T14:08:18.760Z,4.22
2022-11-21T14:10:47.683Z,4.80
2022-11-21T14:13:20.373Z,3.65
2022-11-21T14:16:41.331Z,3.65
2022-11-21T14:19:17.912Z,3.70
2022-11-21T14:21:47.371Z,4.03
2022-11-21T14:24:19.742Z,3.70
2022-11-21T14:26:50.495Z,3.40
2022-11-21T14:29:19.091Z,3.17
2022-11-21T14:31:48.162Z,3.70
2022-11-21T14:34:30.405Z,3.63
2022-11-21T14:37:00.410Z,3.10
2022-11-21T14:39:42.163Z,3.15
2022-11-21T14:42:15.281Z,3.45
2022-11-21T14:44:43.237Z,3.85
2022-11-21T14:47:25.062Z,3.15
2022-11-21T14:49:55.201Z,3.03
2022-11-21T14:52:33.923Z,3.45
2022-11-21T14:57:54.183Z,2.75
2022-11-21T15:03:20.933Z,3.05
2022-11-21T15:06:07.003Z,3.72
2022-11-21T15:11:38.318Z,3.78
2022-11-21T15:14:17.336Z,3.30
2022-11-21T15:16:51.444Z,3.28
2022-11-21T15:19:29.881Z,2.33
2022-11-21T15:21:59.882Z,3.50
2022-11-21T15:24:41.676Z,3.22
2022-11-21T15:30:20.683Z,3.88
2022-11-21T15:33:04.950Z,3.35
2022-11-21T15:35:38.474Z,4.18
2022-11-21T15:38:32.477Z,3.72
2022-11-21T15:41:09.417Z,4.22
2022-11-21T15:44:17.017Z,3.90
2022-11-21T15:46:47.176Z,4.32
2022-11-21T15:52:12.342Z,3.75
2022-11-21T15:54:39.793Z,4.32
2022-11-21T15:57:12.045Z,3.78
2022-11-21T15:57:14.166Z,3.83
2022-11-21T15:59:39.733Z,4.10
2022-11-21T16:02:12.114Z,3.97
2022-11-21T16:04:40.246Z,4.28
2022-11-21T16:07:07.864Z,4.97
2022-11-21T16:09:36.126Z,4.43
2022-11-21T16:12:04.082Z,3.90
2022-11-21T16:14:31.826Z,4.15
2022-11-21T16:16:59.338Z,4.38
2022-11-21T16:19:27.172Z,3.80
2022-11-21T16:21:54.999Z,4.55
2022-11-21T16:24:22.490Z,4.45
2022-11-21T16:26:53.491Z,5.53
2022-11-21T16:29:21.414Z,4.85
2022-11-21T16:31:51.034Z,4.90
2022-11-21T16:34:19.490Z,5.03
2022-11-21T16:36:47.015Z,4.80
2022-11-21T16:39:18.230Z,4.82
2022-11-21T16:41:57.194Z,4.70
2022-11-21T16:44:24.879Z,5.05
2022-11-21T16:46:54.867Z,5.38
2022-11-21T16:49:24.452Z,5.85
2022-11-21T16:51:52.042Z,6.00
2022-11-21T16:54:19.645Z,7.03
2022-11-21T16:56:47.217Z,5.97
2022-11-21T16:59:14.794Z,5.82
2022-11-21T17:01:42.448Z,4.38
2022-11-21T17:04:15.662Z,5.07
2022-11-21T17:06:45.521Z,5.05
2022-11-21T17:09:13.082Z,4.38
2022-11-21T17:11:40.589Z,4.95
2022-11-21T17:14:13.609Z,5.78
2022-11-21T17:16:42.080Z,4.80
2022-11-21T17:19:11.784Z,4.07
2022-11-21T17:21:39.411Z,4.50
2022-11-21T17:24:07.198Z,4.07
2022-11-21T17:26:37.838Z,3.67
2022-11-21T17:29:05.577Z,3.33
2022-11-21T17:31:33.226Z,3.97
2022-11-21T17:34:01.201Z,4.22
2022-11-21T17:36:30.486Z,4.50
2022-11-21T17:38:58.044Z,3.63
2022-11-21T17:41:26.093Z,3.00
2022-11-21T17:43:56.003Z,3.55
2022-11-21T17:46:25.496Z,2.80
2022-11-21T17:48:57.786Z,2.65
2022-11-21T17:51:29.340Z,2.83
2022-11-21T17:53:57.352Z,2.40
2022-11-21T17:56:28.569Z,1.95
2022-11-21T17:58:56.244Z,2.60
2022-11-21T18:01:23.972Z,2.38
2022-11-21T18:03:59.660Z,2.00
2022-11-21T18:06:38.682Z,2.30
2022-11-21T18:09:07.698Z,2.08
2022-11-21T18:11:39.898Z,2.55
2022-11-21T18:14:11.434Z,3.60
2022-11-21T18:16:39.591Z,2.78
2022-11-21T18:19:11.229Z,3.33
2022-11-21T18:21:38.909Z,2.88
2022-11-21T18:24:06.917Z,2.60
2022-11-21T18:26:37.430Z,1.95
2022-11-21T18:29:34.680Z,1.50
2022-11-21T18:31:55.249Z,1.25
2022-11-21T18:34:23.475Z,1.70
2022-11-21T18:36:52.278Z,1.42
2022-11-21T18:39:21.015Z,1.63
2022-11-21T18:41:48.505Z,1.92
2022-11-21T18:44:21.598Z,1.77
2022-11-21T18:46:49.752Z,2.30
2022-11-21T18:49:18.034Z,1.95
2022-11-21T18:51:46.006Z,2.08
2022-11-21T18:54:13.535Z,1.88
2022-11-21T18:56:41.191Z,2.20
2022-11-21T18:59:08.732Z,2.03
2022-11-21T19:01:39.442Z,2.30
2022-11-21T19:04:07.689Z,2.10
2022-11-21T19:06:35.335Z,2.20
2022-11-21T19:09:03.163Z,2.25
2022-11-21T19:11:30.874Z,2.90
2022-11-21T19:14:00.492Z,2.90
2022-11-21T19:16:31.479Z,2.90
2022-11-21T19:19:32.581Z,2.38
2022-11-21T19:21:47.402Z,2.85
2022-11-21T19:24:19.588Z,2.90
2022-11-21T19:26:50.657Z,2.70
2022-11-21T19:29:19.168Z,3.53
2022-11-21T19:31:46.988Z,2.60
2022-11-21T19:34:15.599Z,2.70
2022-11-21T19:36:45.343Z,2.50
2022-11-21T19:39:13.538Z,2.83
2022-11-21T19:41:41.522Z,2.40
2022-11-21T19:44:09.735Z,2.80
2022-11-21T19:46:39.202Z,2.42
2022-11-21T19:49:08.222Z,3.13
2022-11-21T19:51:38.010Z,2.70
2022-11-21T19:54:07.222Z,2.47
2022-11-21T19:56:35.733Z,2.58
2022-11-21T19:59:03.845Z,2.47
2022-11-21T20:01:33.840Z,3.03
2022-11-21T20:04:27.240Z,2.58
2022-11-21T20:06:57.504Z,2.78
2022-11-21T20:09:25.193Z,3.50
2022-11-21T20:11:53.123Z,3.97
2022-11-21T20:14:22.717Z,3.00
2022-11-21T20:16:51.581Z,3.90
2022-11-21T20:19:20.950Z,5.60
2022-11-21T20:21:49.210Z,4.18
2022-11-21T20:24:17.631Z,5.32
2022-11-21T20:26:45.695Z,4.38
2022-11-21T20:29:15.901Z,5.72
2022-11-21T20:31:44.338Z,6.82
2022-11-21T20:34:13.806Z,7.07
2022-11-21T20:36:42.312Z,6.80
2022-11-21T20:39:15.414Z,4.93
2022-11-21T20:41:43.165Z,5.47
2022-11-21T20:47:07.377Z,6.18
2022-11-21T20:49:35.027Z,6.53
2022-11-21T20:55:17.893Z,4.80
2022-11-21T20:57:45.502Z,5.50
2022-11-21T21:00:13.883Z,5.75
2022-11-21T21:02:42.542Z,5.20
2022-11-21T21:05:12.530Z,5.75
2022-11-21T21:07:40.076Z,6.35
2022-11-21T21:10:08.514Z,7.63
2022-11-21T21:12:37.594Z,7.15
2022-11-21T21:15:05.586Z,6.10
2022-11-21T21:17:34.710Z,6.95
2022-11-21T21:20:03.169Z,6.50
2022-11-21T21:22:30.679Z,7.75
2022-11-21T21:25:00.165Z,8.48
2022-11-21T21:27:27.920Z,10.80
2022-11-21T21:29:55.953Z,9.73
2022-11-21T21:32:23.601Z,8.73
2022-11-21T21:34:51.171Z,7.53
2022-11-21T21:37:19.138Z,5.85
2022-11-21T21:39:46.719Z,7.35
2022-11-21T21:42:14.226Z,7.40
2022-11-21T21:44:41.819Z,9.18
2022-11-21T21:47:11.263Z,8.95
2022-11-21T21:49:38.781Z,9.75
2022-11-21T21:52:16.699Z,9.05
2022-11-21T21:54:44.315Z,10.90
2022-11-21T21:57:12.145Z,7.30
2022-11-21T21:59:39.628Z,5.78
2022-11-21T22:02:07.348Z,5.75
2022-11-21T22:04:34.924Z,5.65
2022-11-21T22:07:05.455Z,6.20
2022-11-21T22:09:33.151Z,5.05
2022-11-21T22:12:00.884Z,7.55
2022-11-21T22:14:28.484Z,7.13
2022-11-21T22:16:56.262Z,9.05
2022-11-21T22:19:24.092Z,8.48
2022-11-21T22:21:51.707Z,9.35
2022-11-21T22:24:27.455Z,7.90
2022-11-21T22:26:55.547Z,6.75
2022-11-21T22:29:23.287Z,7.30
2022-11-21T22:31:51.613Z,7.45
2022-11-21T22:34:19.340Z,6.80
2022-11-21T22:36:47.156Z,6.90
2022-11-21T22:39:15.522Z,7.50
2022-11-21T22:41:43.294Z,6.78
2022-11-21T22:44:11.230Z,6.07
2022-11-21T22:46:39.091Z,6.03
2022-11-21T22:49:06.781Z,6.07
2022-11-21T22:51:34.739Z,6.57
2022-11-21T22:54:02.490Z,6.10
2022-11-21T22:56:30.106Z,5.55
2022-11-21T22:58:57.906Z,5.32
2022-11-21T23:01:26.322Z,5.80
2022-11-21T23:03:55.696Z,5.43
2022-11-21T23:06:25.898Z,6.05
2022-11-21T23:08:55.413Z,6.63
2022-11-21T23:11:26.242Z,5.22
2022-11-21T23:13:55.473Z,6.03
2022-11-21T23:16:23.764Z,6.22
2022-11-21T23:18:56.772Z,6.30
2022-11-21T23:21:24.506Z,6.88
2022-11-21T23:23:52.125Z,7.50
2022-11-21T23:26:20.304Z,7.13
2022-11-21T23:28:48.174Z,7.57
2022-11-21T23:31:15.995Z,7.47
2022-11-21T23:33:43.862Z,7.80
2022-11-21T23:36:11.557Z,7.30
2022-11-21T23:38:39.213Z,6.95
2022-11-21T23:41:06.841Z,6.72
2022-11-21T23:43:34.559Z,6.93
2022-11-21T23:46:02.215Z,7.00
2022-11-21T23:48:29.829Z,7.00
2022-11-21T23:50:58.398Z,7.22
2022-11-21T23:53:26.830Z,7.13
2022-11-21T23:55:54.517Z,8.10
2022-11-21T23:58:22.198Z,7.53
